Mont Saint Michel — FNMT — position and weather

sailwx.info

Track history (hours):
 
Tides and Currents Weather Stations Pressure Air Temp Water Temp Dewpoint Dewpoint Depression Visibility Wind Speed Wind Dir Waves Ship Positions

Mont Saint Michel

Last reported at 2014-Aug-29 13:33 UTC. Time now 2014-Aug-29 14:21 UTC.
Position N 49°17' W 000°15'.

Length 173 m; beam 29 m.

Type: Ship. MMSI: 227023100.

Date/timePositionNaut miles runAvg speedWind from/ knotsBaromVisibWave heightAir tempDewpointWater temp
2014-Aug-29 13:33N 49°17' W 000°15'3 2.9
2014-Aug-29 12:33N 49°20' W 000°14'2120.9
2014-Aug-29 11:33N 49°40' W 000°23'3919.5
2014-Aug-29 09:33N 50°17' W 000°45'1919.4
2014-Aug-29 08:34N 50°35' W 000°56'1515.2
2014-Aug-29 07:33N 50°48' W 001°07'1 0.8
2014-Aug-29 06:33N 50°49' W 001°06'1 0.7
2014-Aug-29 05:34N 50°48' W 001°07'1212.0
2014-Aug-29 04:34N 50°38' W 000°58'1212.0
2014-Aug-29 03:34N 50°26' W 000°53'4012.1
2014-Aug-29 00:14N 49°49' W 000°29'812.2
2014-Aug-28 23:33N 49°41' W 000°26'1212.1
2014-Aug-28 22:33N 49°29' W 000°20'1212.3
2014-Aug-28 21:33N 49°18' W 000°15'0 0.2
2014-Aug-28 20:33N 49°17' W 000°15'0 0.0
2014-Aug-28 19:33N 49°17' W 000°15'1111.5
2014-Aug-28 18:33N 49°29' W 000°19'2019.5
2014-Aug-28 17:34N 49°47' W 000°29'3919.0
2014-Aug-28 15:32N 50°23' W 000°51'2020.4
2014-Aug-28 14:33N 50°42' W 001°00'8 7.9
2014-Aug-28 13:33N 50°49' W 001°06'0 0.0
2014-Aug-28 12:33N 50°49' W 001°06'5 4.7
2014-Aug-28 11:33N 50°44' W 001°04'2019.8
2014-Aug-28 10:33N 50°27' W 000°50'4120.2
2014-Aug-28 08:31N 49°48' W 000°30'1919.8
2014-Aug-28 07:33N 49°29' W 000°20'1312.7
2014-Aug-28 06:33N 49°17' W 000°15'0 0.0
2014-Aug-28 05:33N 49°17' W 000°15'0 0.2
2014-Aug-28 04:33N 49°17' W 000°15'1716.9
2014-Aug-28 03:33N 49°34' W 000°20'5116.2
2014-Aug-28 00:24N 50°23' W 000°44'1315.4
2014-Aug-27 23:34N 50°34' W 000°54'1414.2
2014-Aug-27 22:33N 50°46' W 001°05'3 2.8
2014-Aug-27 21:34N 50°49' W 001°06'0 0.0
2014-Aug-27 20:33N 50°49' W 001°06'6 6.1
2014-Aug-27 19:33N 50°43' W 001°01'1817.4
2014-Aug-27 18:33N 50°27' W 000°52'2819.9
2014-Aug-27 17:09N 50°00' W 000°39'1220.6
2014-Aug-27 16:33N 49°49' W 000°32'2020.2
2014-Aug-27 15:33N 49°30' W 000°22'1313.2
2014-Aug-27 14:33N 49°17' W 000°15'0 0.0
2014-Aug-27 13:33N 49°17' W 000°15'0 0.0
2014-Aug-27 12:33N 49°17' W 000°15'0 0.0
2014-Aug-27 11:33N 49°17' W 000°15'0 0.0
2014-Aug-27 10:33N 49°17' W 000°15'0 0.0
2014-Aug-27 09:33N 49°17' W 000°15'0 0.0
2014-Aug-27 08:33N 49°17' W 000°15'0 0.0
2014-Aug-27 07:33N 49°17' W 000°15'0 0.0
2014-Aug-27 06:33N 49°17' W 000°15'0 0.0
2014-Aug-27 05:33N 49°17' W 000°15'1212.1
2014-Aug-27 04:33N 49°29' W 000°21'1616.1
2014-Aug-27 03:34N 49°43' W 000°33'5213.1
2014-Aug-26 23:33N 50°33' W 000°57'1514.6
2014-Aug-26 22:34N 50°46' W 001°05'2 2.3
2014-Aug-26 21:33N 50°49' W 001°06'0 0.4
2014-Aug-26 20:34N 50°49' W 001°06'6 6.4
2014-Aug-26 19:33N 50°43' W 001°01'1717.1
2014-Aug-26 18:34N 50°28' W 000°51'4019.2
2014-Aug-26 16:29N 49°49' W 000°32'1819.7
2014-Aug-26 15:33N 49°32' W 000°22'1615.7
2014-Aug-26 14:33N 49°17' W 000°15'0 0.0
2014-Aug-26 13:33N 49°17' W 000°15'2 2.0
2014-Aug-26 12:33N 49°19' W 000°15'2120.6
2014-Aug-26 11:33N 49°40' W 000°21'4221.2
2014-Aug-26 09:32N 50°20' W 000°43'2121.0
2014-Aug-26 08:33N 50°38' W 000°56'1211.8
2014-Aug-26 07:34N 50°49' W 001°06'0 0.0
2014-Aug-26 06:34N 50°49' W 001°06'0 0.1
2014-Aug-26 05:34N 50°49' W 001°06'1312.6
2014-Aug-26 04:34N 50°37' W 000°57'1111.4
2014-Aug-26 03:33N 50°27' W 000°51'4711.7
2014-Aug-25 23:33N 49°43' W 000°25'1211.9
2014-Aug-25 22:33N 49°32' W 000°19'1211.6
2014-Aug-25 21:33N 49°20' W 000°14'3 3.1
2014-Aug-25 20:33N 49°17' W 000°15'0 0.0
2014-Aug-25 19:33N 49°17' W 000°15'1211.9
2014-Aug-25 18:33N 49°29' W 000°19'2121.4
2014-Aug-25 17:33N 49°49' W 000°32'4019.9
2014-Aug-25 15:33N 50°26' W 000°53'1817.8
2014-Aug-25 14:33N 50°43' W 001°01'6 6.2
2014-Aug-25 13:34N 50°49' W 001°06'0 0.0
2014-Aug-25 12:34N 50°49' W 001°06'2 1.8
2014-Aug-25 11:34N 50°47' W 001°06'2019.2
2014-Aug-25 10:32N 50°29' W 000°53'4120.8
2014-Aug-25 08:33N 49°50' W 000°31'2120.7
2014-Aug-25 07:33N 49°31' W 000°21'1414.1
2014-Aug-25 06:33N 49°17' W 000°15'0 0.0
2014-Aug-25 05:33N 49°17' W 000°15'0 0.1
2014-Aug-25 04:34N 49°17' W 000°15'1515.4
2014-Aug-25 03:33N 49°32' W 000°21'1615.4
2014-Aug-25 02:33N 49°47' W 000°30'3315.2
2014-Aug-25 00:22N 50°18' W 000°47'1315.7
2014-Aug-24 23:33N 50°30' W 000°54'1615.6
2014-Aug-24 22:33N 50°44' W 001°04'5 4.7
2014-Aug-24 21:34N 50°49' W 001°06'0 0.0
2014-Aug-24 20:34N 50°49' W 001°06'3 3.5
2014-Aug-24 19:33N 50°45' W 001°05'1918.8
2014-Aug-24 18:33N 50°28' W 000°52'4120.6
2014-Aug-24 16:33N 49°50' W 000°29'2019.6
2014-Aug-24 15:33N 49°31' W 000°20'1414.3
2014-Aug-24 14:34N 49°17' W 000°15'0 0.0
2014-Aug-24 13:34N 49°17' W 000°15'0 0.3
2014-Aug-24 12:33N 49°18' W 000°15'1918.8
2014-Aug-24 11:33N 49°36' W 000°21'5919.8
2014-Aug-24 08:33N 50°31' W 000°54'1817.8
2014-Aug-24 07:34N 50°47' W 001°06'2 1.5
2014-Aug-24 06:33N 50°49' W 001°06'0 0.1
2014-Aug-24 05:34N 50°49' W 001°06'1111.2
2014-Aug-24 04:33N 50°39' W 000°57'1111.5
2014-Aug-24 03:33N 50°28' W 000°53'4711.6
2014-Aug-23 23:33N 49°44' W 000°26'1211.6
2014-Aug-23 22:33N 49°34' W 000°20'1111.0
2014-Aug-23 21:33N 49°23' W 000°16'6 5.7
2014-Aug-23 20:33N 49°17' W 000°15'0 0.0
2014-Aug-23 19:33N 49°17' W 000°15'14 0.9
2014-Aug-23 03:33N 49°31' W 000°20'1616.2
2014-Aug-23 02:33N 49°47' W 000°28'3215.7
2014-Aug-23 00:31N 50°17' W 000°44'1516.0
2014-Aug-22 23:34N 50°31' W 000°51'1515.0
2014-Aug-22 22:33N 50°44' W 001°04'5 4.7
2014-Aug-22 21:33N 50°49' W 001°06'0 0.0
2014-Aug-22 20:33N 50°49' W 001°06'4 3.8
2014-Aug-22 19:34N 50°45' W 001°05'2019.7
2014-Aug-22 18:34N 50°27' W 000°51'4320.3
2014-Aug-22 16:28N 49°48' W 000°27'1819.8
2014-Aug-22 15:33N 49°31' W 000°18'1313.2
2014-Aug-22 14:32N 49°17' W 000°15'0 0.0
2014-Aug-22 13:33N 49°17' W 000°15'8 8.2
2014-Aug-22 12:33N 49°26' W 000°16'2020.6
2014-Aug-22 11:33N 49°45' W 000°25'4221.0
2014-Aug-22 09:33N 50°24' W 000°48'2120.6
2014-Aug-22 08:33N 50°43' W 001°02'6 6.2
2014-Aug-22 07:34N 50°49' W 001°06'0 0.0
2014-Aug-22 06:33N 50°49' W 001°06'0 0.2
2014-Aug-22 05:34N 50°49' W 001°06'1312.6
2014-Aug-22 04:33N 50°37' W 000°57'1311.9
2014-Aug-22 03:29N 50°25' W 000°53'3311.1
2014-Aug-22 00:28N 49°54' W 000°32'1111.9
2014-Aug-21 23:34N 49°44' W 000°27'1212.1
2014-Aug-21 22:33N 49°33' W 000°19'1211.6
2014-Aug-21 21:34N 49°22' W 000°15'4 4.4
2014-Aug-21 20:33N 49°17' W 000°15'0 0.0
2014-Aug-21 19:33N 49°17' W 000°15'1110.8
2014-Aug-21 18:33N 49°28' W 000°19'2019.8
2014-Aug-21 17:33N 49°46' W 000°31'4019.7
2014-Aug-21 15:33N 50°23' W 000°52'1918.8
2014-Aug-21 14:34N 50°42' W 000°58'9 8.6
2014-Aug-21 13:33N 50°49' W 001°06'0 0.0
2014-Aug-21 12:34N 50°49' W 001°06'4 4.3
2014-Aug-21 11:34N 50°44' W 001°04'1918.7
2014-Aug-21 10:32N 50°27' W 000°52'3819.5
2014-Aug-21 08:33N 49°51' W 000°30'1919.5
2014-Aug-21 07:34N 49°33' W 000°22'1615.8
2014-Aug-21 06:33N 49°17' W 000°15'0 0.0
2014-Aug-21 05:33N 49°17' W 000°15'0 0.0
2014-Aug-21 04:33N 49°17' W 000°15'1212.3
2014-Aug-21 03:34N 49°29' W 000°20'1515.0
2014-Aug-21 02:33N 49°44' W 000°27'4615.2
2014-Aug-20 23:33N 50°26' W 000°53'1615.7
2014-Aug-20 22:34N 50°41' W 001°00'9 8.5
2014-Aug-20 21:33N 50°49' W 001°06'0 0.0
2014-Aug-20 20:33N 50°49' W 001°06'4 3.9
2014-Aug-20 19:34N 50°45' W 001°05'2120.1
2014-Aug-20 18:30N 50°26' W 000°51'4020.6
2014-Aug-20 16:33N 49°48' W 000°30'1918.9
2014-Aug-20 15:34N 49°30' W 000°20'1313.1
2014-Aug-20 14:33N 49°17' W 000°15'0 0.0
2014-Aug-20 13:33N 49°17' W 000°15'0 0.0
2014-Aug-20 12:33N 49°17' W 000°15'0 0.0
2014-Aug-20 11:33N 49°17' W 000°15'0 0.0
2014-Aug-20 10:33N 49°17' W 000°15'0 0.0
2014-Aug-20 09:33N 49°17' W 000°15'0 0.0
2014-Aug-20 08:33N 49°17' W 000°15'0 0.0
2014-Aug-20 07:33N 49°17' W 000°15'0 0.0
2014-Aug-20 06:33N 49°17' W 000°15'0 0.0
2014-Aug-20 05:33N 49°17' W 000°15'1010.3
2014-Aug-20 04:33N 49°27' W 000°18'1212.2
2014-Aug-20 03:33N 49°39' W 000°24'1212.1
2014-Aug-20 02:33N 49°50' W 000°31'3712.5
2014-Aug-19 23:33N 50°25' W 000°51'1616.3
2014-Aug-19 22:34N 50°41' W 000°58'9 9.1
2014-Aug-19 21:33N 50°49' W 001°06'0 0.0
2014-Aug-19 20:33N 50°49' W 001°06'4 4.5
2014-Aug-19 19:34N 50°44' W 001°04'1919.4
2014-Aug-19 18:34N 50°27' W 000°52'4120.6
2014-Aug-19 16:33N 49°48' W 000°30'1918.9
2014-Aug-19 15:33N 49°30' W 000°20'1313.3
2014-Aug-19 14:33N 49°17' W 000°15'0 0.0
2014-Aug-19 13:33N 49°17' W 000°15'  
Track history (hours):
 
Tides and Currents Weather Stations Pressure Air Temp Water Temp Dewpoint Dewpoint Depression Visibility Wind Speed Wind Dir Waves Ship Positions

Mont Saint Michel

Last reported at 2014-Aug-29 13:33 UTC. Time now 2014-Aug-29 14:21 UTC.
Position N 49°17' W 000°15'.

Length 173 m; beam 29 m.

Type: Ship. MMSI: 227023100.

Date/timePositionNaut miles runAvg speedWind from/ knotsBaromVisibWave heightAir tempDewpointWater temp
2014-Aug-29 13:33N 49°17' W 000°15'3 2.9
2014-Aug-29 12:33N 49°20' W 000°14'2120.9
2014-Aug-29 11:33N 49°40' W 000°23'3919.5
2014-Aug-29 09:33N 50°17' W 000°45'1919.4
2014-Aug-29 08:34N 50°35' W 000°56'1515.2
2014-Aug-29 07:33N 50°48' W 001°07'1 0.8
2014-Aug-29 06:33N 50°49' W 001°06'1 0.7
2014-Aug-29 05:34N 50°48' W 001°07'1212.0
2014-Aug-29 04:34N 50°38' W 000°58'1212.0
2014-Aug-29 03:34N 50°26' W 000°53'4012.1
2014-Aug-29 00:14N 49°49' W 000°29'812.2
2014-Aug-28 23:33N 49°41' W 000°26'1212.1
2014-Aug-28 22:33N 49°29' W 000°20'1212.3
2014-Aug-28 21:33N 49°18' W 000°15'0 0.2
2014-Aug-28 20:33N 49°17' W 000°15'0 0.0
2014-Aug-28 19:33N 49°17' W 000°15'1111.5
2014-Aug-28 18:33N 49°29' W 000°19'2019.5
2014-Aug-28 17:34N 49°47' W 000°29'3919.0
2014-Aug-28 15:32N 50°23' W 000°51'2020.4
2014-Aug-28 14:33N 50°42' W 001°00'8 7.9
2014-Aug-28 13:33N 50°49' W 001°06'0 0.0
2014-Aug-28 12:33N 50°49' W 001°06'5 4.7
2014-Aug-28 11:33N 50°44' W 001°04'2019.8
2014-Aug-28 10:33N 50°27' W 000°50'4120.2
2014-Aug-28 08:31N 49°48' W 000°30'1919.8
2014-Aug-28 07:33N 49°29' W 000°20'1312.7
2014-Aug-28 06:33N 49°17' W 000°15'0 0.0
2014-Aug-28 05:33N 49°17' W 000°15'0 0.2
2014-Aug-28 04:33N 49°17' W 000°15'1716.9
2014-Aug-28 03:33N 49°34' W 000°20'5116.2
2014-Aug-28 00:24N 50°23' W 000°44'1315.4
2014-Aug-27 23:34N 50°34' W 000°54'1414.2
2014-Aug-27 22:33N 50°46' W 001°05'3 2.8
2014-Aug-27 21:34N 50°49' W 001°06'0 0.0
2014-Aug-27 20:33N 50°49' W 001°06'6 6.1
2014-Aug-27 19:33N 50°43' W 001°01'1817.4
2014-Aug-27 18:33N 50°27' W 000°52'2819.9
2014-Aug-27 17:09N 50°00' W 000°39'1220.6
2014-Aug-27 16:33N 49°49' W 000°32'2020.2
2014-Aug-27 15:33N 49°30' W 000°22'1313.2
2014-Aug-27 14:33N 49°17' W 000°15'0 0.0
2014-Aug-27 13:33N 49°17' W 000°15'0 0.0
2014-Aug-27 12:33N 49°17' W 000°15'0 0.0
2014-Aug-27 11:33N 49°17' W 000°15'0 0.0
2014-Aug-27 10:33N 49°17' W 000°15'0 0.0
2014-Aug-27 09:33N 49°17' W 000°15'0 0.0
2014-Aug-27 08:33N 49°17' W 000°15'0 0.0
2014-Aug-27 07:33N 49°17' W 000°15'0 0.0
2014-Aug-27 06:33N 49°17' W 000°15'0 0.0
2014-Aug-27 05:33N 49°17' W 000°15'1212.1
2014-Aug-27 04:33N 49°29' W 000°21'1616.1
2014-Aug-27 03:34N 49°43' W 000°33'5213.1
2014-Aug-26 23:33N 50°33' W 000°57'1514.6
2014-Aug-26 22:34N 50°46' W 001°05'2 2.3
2014-Aug-26 21:33N 50°49' W 001°06'0 0.4
2014-Aug-26 20:34N 50°49' W 001°06'6 6.4
2014-Aug-26 19:33N 50°43' W 001°01'1717.1
2014-Aug-26 18:34N 50°28' W 000°51'4019.2
2014-Aug-26 16:29N 49°49' W 000°32'1819.7
2014-Aug-26 15:33N 49°32' W 000°22'1615.7
2014-Aug-26 14:33N 49°17' W 000°15'0 0.0
2014-Aug-26 13:33N 49°17' W 000°15'2 2.0
2014-Aug-26 12:33N 49°19' W 000°15'2120.6
2014-Aug-26 11:33N 49°40' W 000°21'4221.2
2014-Aug-26 09:32N 50°20' W 000°43'2121.0
2014-Aug-26 08:33N 50°38' W 000°56'1211.8
2014-Aug-26 07:34N 50°49' W 001°06'0 0.0
2014-Aug-26 06:34N 50°49' W 001°06'0 0.1
2014-Aug-26 05:34N 50°49' W 001°06'1312.6
2014-Aug-26 04:34N 50°37' W 000°57'1111.4
2014-Aug-26 03:33N 50°27' W 000°51'4711.7
2014-Aug-25 23:33N 49°43' W 000°25'1211.9
2014-Aug-25 22:33N 49°32' W 000°19'1211.6
2014-Aug-25 21:33N 49°20' W 000°14'3 3.1
2014-Aug-25 20:33N 49°17' W 000°15'0 0.0
2014-Aug-25 19:33N 49°17' W 000°15'1211.9
2014-Aug-25 18:33N 49°29' W 000°19'2121.4
2014-Aug-25 17:33N 49°49' W 000°32'4019.9
2014-Aug-25 15:33N 50°26' W 000°53'1817.8
2014-Aug-25 14:33N 50°43' W 001°01'6 6.2
2014-Aug-25 13:34N 50°49' W 001°06'0 0.0
2014-Aug-25 12:34N 50°49' W 001°06'2 1.8
2014-Aug-25 11:34N 50°47' W 001°06'2019.2
2014-Aug-25 10:32N 50°29' W 000°53'4120.8
2014-Aug-25 08:33N 49°50' W 000°31'2120.7
2014-Aug-25 07:33N 49°31' W 000°21'1414.1
2014-Aug-25 06:33N 49°17' W 000°15'0 0.0
2014-Aug-25 05:33N 49°17' W 000°15'0 0.1
2014-Aug-25 04:34N 49°17' W 000°15'1515.4
2014-Aug-25 03:33N 49°32' W 000°21'1615.4
2014-Aug-25 02:33N 49°47' W 000°30'3315.2
2014-Aug-25 00:22N 50°18' W 000°47'1315.7
2014-Aug-24 23:33N 50°30' W 000°54'1615.6
2014-Aug-24 22:33N 50°44' W 001°04'5 4.7
2014-Aug-24 21:34N 50°49' W 001°06'0 0.0
2014-Aug-24 20:34N 50°49' W 001°06'3 3.5
2014-Aug-24 19:33N 50°45' W 001°05'1918.8
2014-Aug-24 18:33N 50°28' W 000°52'4120.6
2014-Aug-24 16:33N 49°50' W 000°29'2019.6
2014-Aug-24 15:33N 49°31' W 000°20'1414.3
2014-Aug-24 14:34N 49°17' W 000°15'0 0.0
2014-Aug-24 13:34N 49°17' W 000°15'0 0.3
2014-Aug-24 12:33N 49°18' W 000°15'1918.8
2014-Aug-24 11:33N 49°36' W 000°21'5919.8
2014-Aug-24 08:33N 50°31' W 000°54'1817.8
2014-Aug-24 07:34N 50°47' W 001°06'2 1.5
2014-Aug-24 06:33N 50°49' W 001°06'0 0.1
2014-Aug-24 05:34N 50°49' W 001°06'1111.2
2014-Aug-24 04:33N 50°39' W 000°57'1111.5
2014-Aug-24 03:33N 50°28' W 000°53'4711.6
2014-Aug-23 23:33N 49°44' W 000°26'1211.6
2014-Aug-23 22:33N 49°34' W 000°20'1111.0
2014-Aug-23 21:33N 49°23' W 000°16'6 5.7
2014-Aug-23 20:33N 49°17' W 000°15'0 0.0
2014-Aug-23 19:33N 49°17' W 000°15'14 0.9
2014-Aug-23 03:33N 49°31' W 000°20'1616.2
2014-Aug-23 02:33N 49°47' W 000°28'3215.7
2014-Aug-23 00:31N 50°17' W 000°44'1516.0
2014-Aug-22 23:34N 50°31' W 000°51'1515.0
2014-Aug-22 22:33N 50°44' W 001°04'5 4.7
2014-Aug-22 21:33N 50°49' W 001°06'0 0.0
2014-Aug-22 20:33N 50°49' W 001°06'4 3.8
2014-Aug-22 19:34N 50°45' W 001°05'2019.7
2014-Aug-22 18:34N 50°27' W 000°51'4320.3
2014-Aug-22 16:28N 49°48' W 000°27'1819.8
2014-Aug-22 15:33N 49°31' W 000°18'1313.2
2014-Aug-22 14:32N 49°17' W 000°15'0 0.0
2014-Aug-22 13:33N 49°17' W 000°15'8 8.2
2014-Aug-22 12:33N 49°26' W 000°16'2020.6
2014-Aug-22 11:33N 49°45' W 000°25'4221.0
2014-Aug-22 09:33N 50°24' W 000°48'2120.6
2014-Aug-22 08:33N 50°43' W 001°02'6 6.2
2014-Aug-22 07:34N 50°49' W 001°06'0 0.0
2014-Aug-22 06:33N 50°49' W 001°06'0 0.2
2014-Aug-22 05:34N 50°49' W 001°06'1312.6
2014-Aug-22 04:33N 50°37' W 000°57'1311.9
2014-Aug-22 03:29N 50°25' W 000°53'3311.1
2014-Aug-22 00:28N 49°54' W 000°32'1111.9
2014-Aug-21 23:34N 49°44' W 000°27'1212.1
2014-Aug-21 22:33N 49°33' W 000°19'1211.6
2014-Aug-21 21:34N 49°22' W 000°15'4 4.4
2014-Aug-21 20:33N 49°17' W 000°15'0 0.0
2014-Aug-21 19:33N 49°17' W 000°15'1110.8
2014-Aug-21 18:33N 49°28' W 000°19'2019.8
2014-Aug-21 17:33N 49°46' W 000°31'4019.7
2014-Aug-21 15:33N 50°23' W 000°52'1918.8
2014-Aug-21 14:34N 50°42' W 000°58'9 8.6
2014-Aug-21 13:33N 50°49' W 001°06'0 0.0
2014-Aug-21 12:34N 50°49' W 001°06'4 4.3
2014-Aug-21 11:34N 50°44' W 001°04'1918.7
2014-Aug-21 10:32N 50°27' W 000°52'3819.5
2014-Aug-21 08:33N 49°51' W 000°30'1919.5
2014-Aug-21 07:34N 49°33' W 000°22'1615.8
2014-Aug-21 06:33N 49°17' W 000°15'0 0.0
2014-Aug-21 05:33N 49°17' W 000°15'0 0.0
2014-Aug-21 04:33N 49°17' W 000°15'1212.3
2014-Aug-21 03:34N 49°29' W 000°20'1515.0
2014-Aug-21 02:33N 49°44' W 000°27'4615.2
2014-Aug-20 23:33N 50°26' W 000°53'1615.7
2014-Aug-20 22:34N 50°41' W 001°00'9 8.5
2014-Aug-20 21:33N 50°49' W 001°06'0 0.0
2014-Aug-20 20:33N 50°49' W 001°06'4 3.9
2014-Aug-20 19:34N 50°45' W 001°05'2120.1
2014-Aug-20 18:30N 50°26' W 000°51'4020.6
2014-Aug-20 16:33N 49°48' W 000°30'1918.9
2014-Aug-20 15:34N 49°30' W 000°20'1313.1
2014-Aug-20 14:33N 49°17' W 000°15'0 0.0
2014-Aug-20 13:33N 49°17' W 000°15'0 0.0
2014-Aug-20 12:33N 49°17' W 000°15'0 0.0
2014-Aug-20 11:33N 49°17' W 000°15'0 0.0
2014-Aug-20 10:33N 49°17' W 000°15'0 0.0
2014-Aug-20 09:33N 49°17' W 000°15'0 0.0
2014-Aug-20 08:33N 49°17' W 000°15'0 0.0
2014-Aug-20 07:33N 49°17' W 000°15'0 0.0
2014-Aug-20 06:33N 49°17' W 000°15'0 0.0
2014-Aug-20 05:33N 49°17' W 000°15'1010.3
2014-Aug-20 04:33N 49°27' W 000°18'1212.2
2014-Aug-20 03:33N 49°39' W 000°24'1212.1
2014-Aug-20 02:33N 49°50' W 000°31'3712.5
2014-Aug-19 23:33N 50°25' W 000°51'1616.3
2014-Aug-19 22:34N 50°41' W 000°58'9 9.1
2014-Aug-19 21:33N 50°49' W 001°06'0 0.0
2014-Aug-19 20:33N 50°49' W 001°06'4 4.5
2014-Aug-19 19:34N 50°44' W 001°04'1919.4
2014-Aug-19 18:34N 50°27' W 000°52'4120.6
2014-Aug-19 16:33N 49°48' W 000°30'1918.9
2014-Aug-19 15:33N 49°30' W 000°20'1313.3
2014-Aug-19 14:33N 49°17' W 000°15'0 0.0
2014-Aug-19 13:33N 49°17' W 000°15'  

Dump ship's entire track history